Time,TemperatureF,DewpointF,PressureIn,WindDirection,WindDirectionDegrees,WindSpeedMPH,WindSpeedGustMPH,Humidity,HourlyPrecipIn,Conditions,Clouds,dailyrainin,SoftwareType,DateUTC
2013-03-04 00:01:00,57.6,30.9,29.65,WNW,284,0.0,5.0,36,0.00,,FEW100,0.00,VWS V14.01,2013-03-04 08:01:00,
2013-03-04 00:11:00,57.1,31.1,29.66,WNW,285,0.0,3.0,37,0.00,,FEW100,0.00,VWS V14.01,2013-03-04 08:11:00,
2013-03-04 00:21:00,56.2,31.0,29.66,WNW,284,2.0,2.0,38,0.00,,FEW100,0.00,VWS V14.01,2013-03-04 08:21:00,
2013-03-04 00:31:00,55.1,31.2,29.66,WNW,284,2.0,3.0,40,0.00,,FEW100,0.00,VWS V14.01,2013-03-04 08:31:00,
2013-03-04 00:41:00,55.0,31.1,29.67,WNW,284,0.0,3.0,40,0.00,,FEW100,0.00,VWS V14.01,2013-03-04 08:41:00,
2013-03-04 00:51:00,54.7,30.9,29.67,WNW,284,0.0,0.0,40,0.00,,FEW100,0.00,VWS V14.01,2013-03-04 08:51:00,
2013-03-04 01:01:00,54.8,32.2,29.67,WNW,285,0.0,3.0,42,0.00,,SCT080,0.00,VWS V14.01,2013-03-04 09:01:00,
2013-03-04 01:11:00,53.8,34.6,29.67,WNW,284,3.0,4.0,48,0.00,,SCT080,0.00,VWS V14.01,2013-03-04 09:11:00,
2013-03-04 01:21:00,53.9,35.7,29.67,WNW,284,2.0,3.0,50,0.00,,SCT080,0.00,VWS V14.01,2013-03-04 09:21:00,
2013-03-04 01:31:00,54.2,36.5,29.67,NNW,344,2.0,6.0,51,0.00,,SCT080,0.00,VWS V14.01,2013-03-04 09:31:00,
2013-03-04 01:41:00,54.0,36.3,29.67,NNW,344,1.0,5.0,51,0.00,,SCT080,0.00,VWS V14.01,2013-03-04 09:41:00,
2013-03-04 01:51:00,54.0,36.8,29.67,NNW,344,0.0,3.0,52,0.00,,SCT080,0.00,VWS V14.01,2013-03-04 09:51:00,
2013-03-04 02:01:00,52.8,36.2,29.67,NNW,344,2.0,3.0,53,0.00,,BKN080,0.00,VWS V14.01,2013-03-04 10:01:00,
2013-03-04 02:11:00,52.4,32.8,29.67,SW,233,6.0,8.0,47,0.00,,BKN080,0.00,VWS V14.01,2013-03-04 10:11:00,
2013-03-04 02:21:00,52.2,31.5,29.66,SW,215,8.0,12.0,45,0.00,,BKN080,0.00,VWS V14.01,2013-03-04 10:21:00,
2013-03-04 02:31:00,52.2,31.5,29.66,SW,229,7.0,11.0,45,0.00,,BKN080,0.00,VWS V14.01,2013-03-04 10:31:00,
2013-03-04 02:41:00,51.6,31.5,29.67,SW,229,5.0,8.0,46,0.00,,BKN080,0.00,VWS V14.01,2013-03-04 10:41:00,
2013-03-04 02:51:00,51.5,31.4,29.67,SW,221,5.0,10.0,46,0.00,,BKN080,0.00,VWS V14.01,2013-03-04 10:51:00,
2013-03-04 03:01:00,52.1,32.0,29.67,SW,227,3.0,7.0,46,0.00,,FEW080,0.00,VWS V14.01,2013-03-04 11:01:00,
2013-03-04 03:11:00,52.6,31.9,29.68,SW,219,5.0,7.0,45,0.00,,FEW080,0.00,VWS V14.01,2013-03-04 11:11:00,
2013-03-04 03:21:00,53.0,32.2,29.69,West,265,2.0,7.0,45,0.00,,FEW080,0.00,VWS V14.01,2013-03-04 11:21:00,
2013-03-04 03:31:00,52.7,32.0,29.69,West,266,0.0,5.0,45,0.00,,FEW080,0.00,VWS V14.01,2013-03-04 11:31:00,
2013-03-04 03:41:00,52.0,31.9,29.69,West,265,2.0,3.0,46,0.00,,FEW080,0.00,VWS V14.01,2013-03-04 11:41:00,
2013-03-04 03:51:00,51.7,31.6,29.69,WSW,256,3.0,4.0,46,0.00,,FEW080,0.00,VWS V14.01,2013-03-04 11:51:00,
2013-03-04 04:01:00,50.8,31.8,29.70,SW,217,0.0,5.0,48,0.00,,FEW080,0.00,VWS V14.01,2013-03-04 12:01:00,
2013-03-04 04:11:00,50.6,32.2,29.71,SW,217,4.0,4.0,49,0.00,,FEW080,0.00,VWS V14.01,2013-03-04 12:11:00,
2013-03-04 04:21:00,51.0,32.0,29.71,SW,217,6.0,6.0,48,0.00,,FEW080,0.00,VWS V14.01,2013-03-04 12:21:00,
2013-03-04 04:31:00,51.3,32.8,29.71,SSW,213,4.0,6.0,49,0.00,,SCT140,0.00,VWS V14.01,2013-03-04 12:31:00,
2013-03-04 04:41:00,51.3,33.3,29.71,SSW,213,3.0,5.0,50,0.00,,SCT140,0.00,VWS V14.01,2013-03-04 12:41:00,
2013-03-04 04:51:00,51.9,34.4,29.72,SSW,213,3.0,4.0,51,0.00,,SCT140,0.00,VWS V14.01,2013-03-04 12:51:00,
2013-03-04 05:01:00,52.3,33.7,29.72,SSW,211,5.0,6.0,49,0.00,,BKN110,0.00,VWS V14.01,2013-03-04 13:01:00,
2013-03-04 05:11:00,52.2,34.1,29.72,WSW,252,3.0,7.0,50,0.00,,BKN110,0.00,VWS V14.01,2013-03-04 13:11:00,
2013-03-04 05:21:00,51.8,33.8,29.73,West,263,2.0,4.0,50,0.00,,BKN110,0.00,VWS V14.01,2013-03-04 13:21:00,
2013-03-04 05:31:00,51.3,33.8,29.73,West,263,1.0,2.0,51,0.00,,BKN110,0.00,VWS V14.01,2013-03-04 13:31:00,
2013-03-04 05:41:00,50.7,33.7,29.73,West,263,0.0,2.0,52,0.00,,BKN110,0.00,VWS V14.01,2013-03-04 13:41:00,
2013-03-04 05:51:00,49.8,33.4,29.74,West,263,1.0,3.0,53,0.00,,BKN110,0.00,VWS V14.01,2013-03-04 13:51:00,
2013-03-04 06:01:00,49.2,33.7,29.74,West,263,0.0,3.0,55,0.00,,OVC110,0.00,VWS V14.01,2013-03-04 14:01:00,
2013-03-04 06:11:00,50.7,33.7,29.74,East,95,0.0,7.0,52,0.00,,OVC110,0.00,VWS V14.01,2013-03-04 14:11:00,
2013-03-04 06:21:00,49.7,33.3,29.74,ESE,122,2.0,5.0,53,0.00,,OVC110,0.00,VWS V14.01,2013-03-04 14:21:00,
2013-03-04 06:31:00,51.8,34.3,29.75,ESE,122,2.0,4.0,51,0.00,,OVC110,0.00,VWS V14.01,2013-03-04 14:31:00,
2013-03-04 06:41:00,53.0,34.4,29.76,ENE,78,2.0,6.0,49,0.00,,OVC110,0.00,VWS V14.01,2013-03-04 14:41:00,
2013-03-04 06:51:00,54.0,34.2,29.76,ESE,121,2.0,5.0,47,0.00,,OVC110,0.00,VWS V14.01,2013-03-04 14:51:00,
2013-03-04 07:01:00,52.2,33.6,29.77,South,181,3.0,7.0,49,0.00,,SCT110,0.00,VWS V14.01,2013-03-04 15:01:00,
2013-03-04 07:11:00,52.1,34.0,29.77,South,188,0.0,5.0,50,0.00,,SCT110,0.00,VWS V14.01,2013-03-04 15:11:00,
2013-03-04 07:21:00,53.9,34.7,29.78,NNW,338,6.0,7.0,48,0.00,,SCT110,0.00,VWS V14.01,2013-03-04 15:21:00,
2013-03-04 07:31:00,56.8,35.1,29.78,North,355,7.0,16.0,44,0.00,,SCT110,0.00,VWS V14.01,2013-03-04 15:31:00,
2013-03-04 07:41:00,58.1,35.2,29.79,WNW,296,13.0,16.0,42,0.00,,SCT110,0.00,VWS V14.01,2013-03-04 15:41:00,
2013-03-04 07:51:00,57.2,34.3,29.79,WNW,300,12.0,16.0,42,0.00,,SCT110,0.00,VWS V14.01,2013-03-04 15:51:00,
2013-03-04 08:01:00,59.0,34.1,29.79,NNW,345,13.0,21.0,39,0.00,,SCT120,0.00,VWS V14.01,2013-03-04 16:01:00,
2013-03-04 08:11:00,59.5,33.9,29.80,NW,323,9.0,22.0,38,0.00,,SCT120,0.00,VWS V14.01,2013-03-04 16:11:00,
2013-03-04 08:21:00,60.1,33.8,29.80,North,11,14.0,20.0,37,0.00,,SCT120,0.00,VWS V14.01,2013-03-04 16:21:00,
2013-03-04 08:31:00,60.4,34.7,29.80,North,9,9.0,18.0,38,0.00,,SCT120,0.00,VWS V14.01,2013-03-04 16:31:00,
2013-03-04 08:41:00,60.8,34.4,29.80,NNW,329,7.0,20.0,37,0.00,,SCT120,0.00,VWS V14.01,2013-03-04 16:41:00,
2013-03-04 08:51:00,60.7,34.3,29.80,NNW,337,11.0,22.0,37,0.00,,SCT120,0.00,VWS V14.01,2013-03-04 16:51:00,
2013-03-04 09:01:00,60.9,34.5,29.81,North,349,16.0,20.0,37,0.00,,SCT120,0.00,VWS V14.01,2013-03-04 17:01:00,
2013-03-04 09:11:00,61.1,33.3,29.81,North,350,15.0,21.0,35,0.00,,SCT120,0.00,VWS V14.01,2013-03-04 17:11:00,
2013-03-04 09:21:00,61.9,33.2,29.81,NNE,27,8.0,21.0,34,0.00,,SCT120,0.00,VWS V14.01,2013-03-04 17:21:00,
2013-03-04 09:31:00,62.3,32.9,29.81,North,355,16.0,20.0,33,0.00,,SCT120,0.00,VWS V14.01,2013-03-04 17:31:00,
2013-03-04 09:41:00,62.0,32.6,29.82,NE,37,5.0,22.0,33,0.00,,SCT120,0.00,VWS V14.01,2013-03-04 17:41:00,
2013-03-04 09:51:00,62.3,32.1,29.82,North,350,5.0,21.0,32,0.00,,SCT120,0.00,VWS V14.01,2013-03-04 17:51:00,
2013-03-04 10:01:00,62.4,31.4,29.82,North,355,10.0,22.0,31,0.00,,SCT120,0.00,VWS V14.01,2013-03-04 18:01:00,
2013-03-04 10:11:00,63.0,32.7,29.82,North,10,7.0,21.0,32,0.00,,SCT120,0.00,VWS V14.01,2013-03-04 18:11:00,
2013-03-04 10:21:00,63.1,31.2,29.83,North,9,4.0,19.0,30,0.00,,SCT120,0.00,VWS V14.01,2013-03-04 18:21:00,
2013-03-04 10:31:00,63.5,30.7,29.83,North,5,12.0,20.0,29,0.00,,SCT120,0.00,VWS V14.01,2013-03-04 18:31:00,
2013-03-04 10:41:00,63.5,30.7,29.83,North,355,15.0,19.0,29,0.00,,SCT120,0.00,VWS V14.01,2013-03-04 18:41:00,
2013-03-04 10:51:00,63.6,31.6,29.83,North,9,9.0,19.0,30,0.00,,SCT120,0.00,VWS V14.01,2013-03-04 18:51:00,
2013-03-04 11:01:00,64.4,31.5,29.83,North,9,9.0,16.0,29,0.00,,FEW120,0.00,VWS V14.01,2013-03-04 19:01:00,
2013-03-04 11:11:00,64.2,32.2,29.83,NNW,340,3.0,19.0,30,0.00,,FEW120,0.00,VWS V14.01,2013-03-04 19:11:00,
2013-03-04 11:21:00,64.0,32.0,29.83,NNE,14,12.0,18.0,30,0.00,,FEW120,0.00,VWS V14.01,2013-03-04 19:21:00,
2013-03-04 11:31:00,64.1,31.2,29.83,North,360,11.0,17.0,29,0.00,,FEW120,0.00,VWS V14.01,2013-03-04 19:31:00,
2013-03-04 11:41:00,64.5,31.6,29.83,NE,36,8.0,17.0,29,0.00,,FEW120,0.00,VWS V14.01,2013-03-04 19:41:00,
2013-03-04 11:51:00,65.2,32.2,29.82,NE,46,10.0,15.0,29,0.00,,FEW120,0.00,VWS V14.01,2013-03-04 19:51:00,
2013-03-04 12:01:00,65.3,31.4,29.82,NNE,28,6.0,13.0,28,0.00,,FEW120,0.00,VWS V14.01,2013-03-04 20:01:00,
2013-03-04 12:11:00,65.1,30.3,29.82,North,9,14.0,17.0,27,0.00,,FEW120,0.00,VWS V14.01,2013-03-04 20:11:00,
2013-03-04 12:21:00,65.2,30.4,29.81,NE,45,10.0,18.0,27,0.00,,FEW120,0.00,VWS V14.01,2013-03-04 20:21:00,
2013-03-04 12:31:00,65.3,30.5,29.81,North,10,10.0,17.0,27,0.00,,FEW120,0.00,VWS V14.01,2013-03-04 20:31:00,
2013-03-04 12:41:00,66.4,30.5,29.81,North,355,6.0,14.0,26,0.00,,FEW120,0.00,VWS V14.01,2013-03-04 20:41:00,
2013-03-04 12:51:00,66.7,30.8,29.81,NNE,32,4.0,14.0,26,0.00,,FEW120,0.00,VWS V14.01,2013-03-04 20:51:00,
2013-03-04 13:01:00,67.4,30.4,29.81,NNE,28,7.0,12.0,25,0.00,,FEW120,0.00,VWS V14.01,2013-03-04 21:01:00,
2013-03-04 13:11:00,66.6,30.7,29.81,NE,37,1.0,12.0,26,0.00,,FEW120,0.00,VWS V14.01,2013-03-04 21:11:00,
2013-03-04 13:21:00,67.6,30.6,29.81,North,355,5.0,12.0,25,0.00,,FEW120,0.00,VWS V14.01,2013-03-04 21:21:00,
2013-03-04 13:31:00,67.8,30.7,29.81,NNE,26,8.0,11.0,25,0.00,,FEW120,0.00,VWS V14.01,2013-03-04 21:31:00,
2013-03-04 13:41:00,67.7,30.6,29.81,NNW,331,3.0,10.0,25,0.00,,FEW120,0.00,VWS V14.01,2013-03-04 21:41:00,
2013-03-04 13:51:00,67.9,30.8,29.82,NW,318,5.0,11.0,25,0.00,,FEW120,0.00,VWS V14.01,2013-03-04 21:51:00,
2013-03-04 14:01:00,68.1,31.0,29.82,NNE,15,1.0,11.0,25,0.00,,CLR,0.00,VWS V14.01,2013-03-04 22:01:00,
2013-03-04 14:11:00,68.6,30.4,29.82,North,10,5.0,11.0,24,0.00,,CLR,0.00,VWS V14.01,2013-03-04 22:11:00,
2013-03-04 14:21:00,67.7,30.6,29.82,NE,49,7.0,13.0,25,0.00,,CLR,0.00,VWS V14.01,2013-03-04 22:21:00,
2013-03-04 14:31:00,67.6,28.5,29.82,NNW,340,2.0,12.0,23,0.00,,CLR,0.00,VWS V14.01,2013-03-04 22:31:00,
2013-03-04 14:41:00,67.6,27.4,29.82,NNE,17,6.0,12.0,22,0.00,,CLR,0.00,VWS V14.01,2013-03-04 22:41:00,
2013-03-04 14:51:00,68.3,28.0,29.82,NNE,16,3.0,9.0,22,0.00,,CLR,0.00,VWS V14.01,2013-03-04 22:51:00,
2013-03-04 15:01:00,69.3,29.9,29.82,North,355,5.0,6.0,23,0.00,,FEW140,0.00,VWS V14.01,2013-03-04 23:01:00,
2013-03-04 15:11:00,68.8,28.4,29.82,NE,34,2.0,10.0,22,0.00,,FEW140,0.00,VWS V14.01,2013-03-04 23:11:00,
2013-03-04 15:21:00,68.3,29.1,29.82,North,355,5.0,12.0,23,0.00,,FEW140,0.00,VWS V14.01,2013-03-04 23:21:00,
2013-03-04 15:31:00,67.9,28.8,29.82,ENE,70,4.0,11.0,23,0.00,,FEW140,0.00,VWS V14.01,2013-03-04 23:31:00,
2013-03-04 15:41:00,68.2,27.9,29.82,NE,44,0.0,9.0,22,0.00,,FEW140,0.00,VWS V14.01,2013-03-04 23:41:00,
2013-03-04 15:51:00,68.0,28.9,29.82,East,96,0.0,5.0,23,0.00,,FEW140,0.00,VWS V14.01,2013-03-04 23:51:00,
2013-03-04 16:01:00,69.0,29.7,29.82,NE,49,6.0,12.0,23,0.00,,FEW140,0.00,VWS V14.01,2013-03-05 00:01:00,
2013-03-04 16:11:00,68.7,29.4,29.82,ENE,57,0.0,12.0,23,0.00,,FEW140,0.00,VWS V14.01,2013-03-05 00:11:00,
2013-03-04 16:21:00,68.0,28.9,29.83,NE,42,5.0,10.0,23,0.00,,FEW140,0.00,VWS V14.01,2013-03-05 00:21:00,
2013-03-04 16:31:00,67.6,29.6,29.82,NE,56,5.0,7.0,24,0.00,,CLR,0.00,VWS V14.01,2013-03-05 00:31:00,
2013-03-04 16:41:00,67.7,29.6,29.83,NE,38,4.0,6.0,24,0.00,,CLR,0.00,VWS V14.01,2013-03-05 00:41:00,
2013-03-04 16:51:00,67.5,29.5,29.83,NNE,27,7.0,7.0,24,0.00,,CLR,0.00,VWS V14.01,2013-03-05 00:51:00,
2013-03-04 17:01:00,67.0,29.0,29.83,ENE,64,3.0,9.0,24,0.00,,CLR,0.00,VWS V14.01,2013-03-05 01:01:00,
2013-03-04 17:11:00,66.7,28.8,29.83,NE,41,0.0,6.0,24,0.00,,CLR,0.00,VWS V14.01,2013-03-05 01:11:00,
2013-03-04 17:21:00,66.2,28.4,29.83,NE,41,1.0,6.0,24,0.00,,CLR,0.00,VWS V14.01,2013-03-05 01:21:00,
2013-03-04 17:31:00,65.5,28.8,29.84,NE,51,4.0,7.0,25,0.00,,CLR,0.00,VWS V14.01,2013-03-05 01:31:00,
2013-03-04 17:41:00,64.8,28.2,29.84,NE,49,3.0,5.0,25,0.00,,CLR,0.00,VWS V14.01,2013-03-05 01:41:00,
2013-03-04 17:51:00,64.4,27.8,29.85,ENE,60,4.0,5.0,25,0.00,,CLR,0.00,VWS V14.01,2013-03-05 01:51:00,
2013-03-04 18:01:00,63.9,27.4,29.85,ENE,60,4.0,7.0,25,0.00,,CLR,0.00,VWS V14.01,2013-03-05 02:01:00,
2013-03-04 18:11:00,63.4,27.0,29.86,ENE,61,0.0,4.0,25,0.00,,CLR,0.00,VWS V14.01,2013-03-05 02:11:00,
2013-03-04 18:21:00,62.9,26.6,29.86,ENE,61,0.0,3.0,25,0.00,,CLR,0.00,VWS V14.01,2013-03-05 02:21:00,
2013-03-04 18:31:00,61.5,29.8,29.87,ENE,61,0.0,0.0,30,0.00,,CLR,0.00,VWS V14.01,2013-03-05 02:31:00,
2013-03-04 18:41:00,60.4,28.0,29.87,ENE,61,0.0,0.0,29,0.00,,CLR,0.00,VWS V14.01,2013-03-05 02:41:00,
2013-03-04 18:51:00,59.4,29.6,29.87,ENE,61,2.0,3.0,32,0.00,,CLR,0.00,VWS V14.01,2013-03-05 02:51:00,
2013-03-04 19:01:00,59.4,28.0,29.88,ENE,61,0.0,2.0,30,0.00,,CLR,0.00,VWS V14.01,2013-03-05 03:01:00,
2013-03-04 19:11:00,59.0,28.4,29.88,ENE,61,2.0,3.0,31,0.00,,CLR,0.00,VWS V14.01,2013-03-05 03:11:00,
2013-03-04 19:21:00,58.7,28.2,29.89,SE,135,2.0,5.0,31,0.00,,CLR,0.00,VWS V14.01,2013-03-05 03:21:00,
2013-03-04 19:31:00,58.2,28.5,29.89,SE,135,2.0,5.0,32,0.00,,CLR,0.00,VWS V14.01,2013-03-05 03:31:00,
2013-03-04 19:41:00,57.1,27.5,29.89,SE,135,4.0,5.0,32,0.00,,CLR,0.00,VWS V14.01,2013-03-05 03:41:00,
2013-03-04 19:51:00,56.6,27.1,29.90,SE,135,0.0,4.0,32,0.00,,CLR,0.00,VWS V14.01,2013-03-05 03:51:00,
2013-03-04 20:01:00,56.3,28.3,29.90,SE,135,0.0,0.0,34,0.00,,CLR,0.00,VWS V14.01,2013-03-05 04:01:00,
2013-03-04 20:11:00,56.2,28.9,29.91,SE,135,0.0,2.0,35,0.00,,CLR,0.00,VWS V14.01,2013-03-05 04:11:00,
2013-03-04 20:21:00,56.2,28.9,29.91,SE,134,0.0,0.0,35,0.00,,CLR,0.00,VWS V14.01,2013-03-05 04:21:00,
2013-03-04 20:31:00,57.0,28.2,29.92,WSW,239,1.0,5.0,33,0.00,,CLR,0.00,VWS V14.01,2013-03-05 04:31:00,
2013-03-04 20:41:00,57.4,27.8,29.92,WSW,242,4.0,5.0,32,0.00,,CLR,0.00,VWS V14.01,2013-03-05 04:41:00,
2013-03-04 20:51:00,57.3,28.5,29.92,NW,313,3.0,6.0,33,0.00,,CLR,0.00,VWS V14.01,2013-03-05 04:51:00,
2013-03-04 21:01:00,57.1,29.0,29.92,NW,314,2.0,6.0,34,0.00,,CLR,0.00,VWS V14.01,2013-03-05 05:01:00,
2013-03-04 21:11:00,56.9,29.5,29.93,NW,318,2.0,6.0,35,0.00,,CLR,0.00,VWS V14.01,2013-03-05 05:11:00,
2013-03-04 21:21:00,56.7,30.1,29.93,NW,305,3.0,5.0,36,0.00,,CLR,0.00,VWS V14.01,2013-03-05 05:21:00,
2013-03-04 21:31:00,56.2,30.3,29.93,WNW,295,3.0,6.0,37,0.00,,CLR,0.00,VWS V14.01,2013-03-05 05:31:00,
2013-03-04 21:41:00,56.4,30.5,29.94,WNW,301,2.0,7.0,37,0.00,,CLR,0.00,VWS V14.01,2013-03-05 05:41:00,
2013-03-04 21:51:00,56.4,30.5,29.94,NW,306,4.0,5.0,37,0.00,,CLR,0.00,VWS V14.01,2013-03-05 05:51:00,
2013-03-04 22:01:00,56.3,30.4,29.94,NW,308,1.0,6.0,37,0.00,,CLR,0.00,VWS V14.01,2013-03-05 06:01:00,
2013-03-04 22:11:00,55.8,30.6,29.94,NW,307,2.0,5.0,38,0.00,,CLR,0.00,VWS V14.01,2013-03-05 06:11:00,
2013-03-04 22:21:00,55.4,30.2,29.94,NW,309,0.0,4.0,38,0.00,,CLR,0.00,VWS V14.01,2013-03-05 06:21:00,
2013-03-04 22:31:00,55.2,30.1,29.94,NW,309,0.0,4.0,38,0.00,,CLR,0.00,VWS V14.01,2013-03-05 06:31:00,
2013-03-04 22:41:00,54.1,30.3,29.94,NW,309,0.0,1.0,40,0.00,,CLR,0.00,VWS V14.01,2013-03-05 06:41:00,
2013-03-04 22:51:00,54.5,30.1,29.93,NW,309,2.0,4.0,39,0.00,,CLR,0.00,VWS V14.01,2013-03-05 06:51:00,
2013-03-04 23:01:00,54.6,30.2,29.93,NW,309,0.0,2.0,39,0.00,,CLR,0.00,VWS V14.01,2013-03-05 07:01:00,
2013-03-04 23:11:00,52.8,30.4,29.93,NW,309,2.0,3.0,42,0.00,,CLR,0.00,VWS V14.01,2013-03-05 07:11:00,
2013-03-04 23:21:00,51.0,28.7,29.93,NW,304,2.0,4.0,42,0.00,,CLR,0.00,VWS V14.01,2013-03-05 07:21:00,
2013-03-04 23:31:00,50.1,27.9,29.94,NW,304,2.0,4.0,42,0.00,,CLR,0.00,VWS V14.01,2013-03-05 07:31:00,
2013-03-04 23:41:00,49.9,28.3,29.93,NW,305,3.0,3.0,43,0.00,,CLR,0.00,VWS V14.01,2013-03-05 07:41:00,
2013-03-04 23:51:00,49.5,28.5,29.93,NW,305,3.0,4.0,44,0.00,,CLR,0.00,VWS V14.01,2013-03-05 07:51:00,